Hovedside
METAR-TAF:

METAR-TAF

Lufthavner :

Esbjerg lufthavn

Esbjerg, Danmark

breddegrad: 55-32N, lengdegrad: 008-34E, høyde over havet: 30 m

Gjeldene værobservasjon

Denne rapporten ble laget for 14 minutter siden, klokken 06:20 UTC
Vind 7 kt fra Sørvest
Temperatur 4°C
Luftfuktighet 87%
Trykk 990 hPa
Sikt 10 km eller mer

METAR: EKEB 290620Z AUTO 23007KT 9999 FEW016/// BKN120/// 04/02 Q0990

Tid: 07:34 (06:34 UTC)

Varsel

Denne rapporten ble laget for 57 minutter siden, klokken 05:37 UTC
Varsel gyldig fra 29. klokken 06 UTC til 29. klokken 15 UTC
Vind 12 kt fra Vest
Sikt 10 km eller mer
Brutte skyer i en høyde av 2500 ft
Midlertidig
fra 29. klokken 06 UTC til 29. klokken 15 UTC
Sikt: 4000 m
Brutte skyer i en høyde av 800 ft
Spredte skyer i en høyde av 1500 ft, Bygeskyer.
regnbyger

TAF: EKEB 290537Z 2906/2915 26012KT 9999 BKN025 TEMPO 2906/2915 4000 SHRA BKN008 SCT015CB

Værobservasjoner og værvarsel for over 4000 flyplasser (METAR- og TAF-rapporter).

Tilgjengelige stasjoner er representert av de røde og gule prikkene på kartet.

Hold musepekeren over prikken for å se navnet på stasjonen.

Klikk så for å se værobservasjoner og -varsler.

For å forandre kartet kan du klikke på den grønne knappen med svart kryss for å zoome inn, på den grønne knappen med strek for å zoome ut, eller på de grønne pilene for å se tilstøtende kart.


METAR-TAF: